sensor_id;sensor_type;location;lat;lon;timestamp;temperature;humidity
60701;DHT22;46541;49.894;10.886;2022-09-09T00:00:25;16.50;99.90
60701;DHT22;46541;49.894;10.886;2022-09-09T00:05:46;16.60;99.90
60701;DHT22;46541;49.894;10.886;2022-09-09T00:08:20;16.60;99.90
60701;DHT22;46541;49.894;10.886;2022-09-09T00:10:54;16.60;99.90
60701;DHT22;46541;49.894;10.886;2022-09-09T00:13:30;16.60;99.90
60701;DHT22;46541;49.894;10.886;2022-09-09T00:18:57;16.50;99.90
60701;DHT22;46541;49.894;10.886;2022-09-09T00:21:36;16.50;99.90
60701;DHT22;46541;49.894;10.886;2022-09-09T00:24:38;16.50;99.90
60701;DHT22;46541;49.894;10.886;2022-09-09T00:32:54;16.70;99.90
60701;DHT22;46541;49.894;10.886;2022-09-09T00:38:00;16.70;99.90
60701;DHT22;46541;49.894;10.886;2022-09-09T00:40:38;16.70;99.90
60701;DHT22;46541;49.894;10.886;2022-09-09T00:48:15;16.70;99.90
60701;DHT22;46541;49.894;10.886;2022-09-09T00:56:13;16.70;99.90
60701;DHT22;46541;49.894;10.886;2022-09-09T00:58:43;16.70;99.90
60701;DHT22;46541;49.894;10.886;2022-09-09T01:01:16;16.70;99.90
60701;DHT22;46541;49.894;10.886;2022-09-09T01:03:54;16.70;99.90
60701;DHT22;46541;49.894;10.886;2022-09-09T01:09:17;16.70;99.90
60701;DHT22;46541;49.894;10.886;2022-09-09T01:20:15;16.60;99.90
60701;DHT22;46541;49.894;10.886;2022-09-09T01:26:09;16.60;99.90
60701;DHT22;46541;49.894;10.886;2022-09-09T01:28:40;16.50;99.90
60701;DHT22;46541;49.894;10.886;2022-09-09T01:31:14;16.40;99.90
60701;DHT22;46541;49.894;10.886;2022-09-09T01:33:41;16.40;99.90
60701;DHT22;46541;49.894;10.886;2022-09-09T01:36:14;16.40;99.90
60701;DHT22;46541;49.894;10.886;2022-09-09T01:38:42;16.40;99.90
60701;DHT22;46541;49.894;10.886;2022-09-09T01:41:09;16.40;99.90
60701;DHT22;46541;49.894;10.886;2022-09-09T01:43:36;16.40;99.90
60701;DHT22;46541;49.894;10.886;2022-09-09T01:46:03;16.30;99.90
60701;DHT22;46541;49.894;10.886;2022-09-09T01:48:32;16.30;99.90
60701;DHT22;46541;49.894;10.886;2022-09-09T01:50:59;16.40;99.90
60701;DHT22;46541;49.894;10.886;2022-09-09T01:53:26;16.30;99.90
60701;DHT22;46541;49.894;10.886;2022-09-09T01:56:21;16.40;99.90
60701;DHT22;46541;49.894;10.886;2022-09-09T02:04:40;16.50;99.90
60701;DHT22;46541;49.894;10.886;2022-09-09T02:10:21;16.50;99.90
60701;DHT22;46541;49.894;10.886;2022-09-09T02:12:53;16.40;99.90
60701;DHT22;46541;49.894;10.886;2022-09-09T02:18:10;16.40;99.90
60701;DHT22;46541;49.894;10.886;2022-09-09T02:20:40;16.40;99.90
60701;DHT22;46541;49.894;10.886;2022-09-09T02:23:11;16.40;99.90
60701;DHT22;46541;49.894;10.886;2022-09-09T02:25:40;16.40;99.90
60701;DHT22;46541;49.894;10.886;2022-09-09T02:28:09;16.40;99.90
60701;DHT22;46541;49.894;10.886;2022-09-09T02:30:37;16.40;99.90
60701;DHT22;46541;49.894;10.886;2022-09-09T02:33:07;16.40;99.90
60701;DHT22;46541;49.894;10.886;2022-09-09T02:35:37;16.40;99.90
60701;DHT22;46541;49.894;10.886;2022-09-09T02:38:07;16.30;99.90
60701;DHT22;46541;49.894;10.886;2022-09-09T02:40:35;16.30;99.90
60701;DHT22;46541;49.894;10.886;2022-09-09T02:43:02;16.40;99.90
60701;DHT22;46541;49.894;10.886;2022-09-09T02:48:28;16.40;99.90
60701;DHT22;46541;49.894;10.886;2022-09-09T02:51:25;16.40;99.90
60701;DHT22;46541;49.894;10.886;2022-09-09T02:54:32;16.40;99.90
60701;DHT22;46541;49.894;10.886;2022-09-09T02:59:40;16.40;99.90
60701;DHT22;46541;49.894;10.886;2022-09-09T03:02:07;16.40;99.90
60701;DHT22;46541;49.894;10.886;2022-09-09T03:04:39;16.40;99.90
60701;DHT22;46541;49.894;10.886;2022-09-09T03:07:07;16.40;99.90
60701;DHT22;46541;49.894;10.886;2022-09-09T03:09:33;16.40;99.90
60701;DHT22;46541;49.894;10.886;2022-09-09T03:12:00;16.40;99.90
60701;DHT22;46541;49.894;10.886;2022-09-09T03:14:27;16.40;99.90
60701;DHT22;46541;49.894;10.886;2022-09-09T03:16:54;16.50;99.90
60701;DHT22;46541;49.894;10.886;2022-09-09T03:19:21;16.50;99.90
60701;DHT22;46541;49.894;10.886;2022-09-09T03:21:48;16.50;99.90
60701;DHT22;46541;49.894;10.886;2022-09-09T03:24:15;16.50;99.90
60701;DHT22;46541;49.894;10.886;2022-09-09T03:26:42;16.50;99.90
60701;DHT22;46541;49.894;10.886;2022-09-09T03:29:12;16.40;99.90
60701;DHT22;46541;49.894;10.886;2022-09-09T03:31:39;16.40;99.90
60701;DHT22;46541;49.894;10.886;2022-09-09T03:34:07;16.40;99.90
60701;DHT22;46541;49.894;10.886;2022-09-09T03:36:34;16.30;99.90
60701;DHT22;46541;49.894;10.886;2022-09-09T03:39:02;16.30;99.90
60701;DHT22;46541;49.894;10.886;2022-09-09T03:41:30;16.30;99.90
60701;DHT22;46541;49.894;10.886;2022-09-09T03:43:57;16.30;99.90
60701;DHT22;46541;49.894;10.886;2022-09-09T03:46:25;16.30;99.90
60701;DHT22;46541;49.894;10.886;2022-09-09T03:48:51;16.30;99.90
60701;DHT22;46541;49.894;10.886;2022-09-09T03:51:19;16.30;99.90
60701;DHT22;46541;49.894;10.886;2022-09-09T03:53:45;16.30;99.90
60701;DHT22;46541;49.894;10.886;2022-09-09T03:56:13;16.30;99.90
60701;DHT22;46541;49.894;10.886;2022-09-09T03:58:39;16.30;99.90
60701;DHT22;46541;49.894;10.886;2022-09-09T04:01:12;16.30;99.90
60701;DHT22;46541;49.894;10.886;2022-09-09T04:03:40;16.30;99.90
60701;DHT22;46541;49.894;10.886;2022-09-09T04:06:09;16.40;99.90
60701;DHT22;46541;49.894;10.886;2022-09-09T04:08:38;16.40;99.90
60701;DHT22;46541;49.894;10.886;2022-09-09T04:11:06;16.40;99.90
60701;DHT22;46541;49.894;10.886;2022-09-09T04:13:34;16.40;99.90
60701;DHT22;46541;49.894;10.886;2022-09-09T04:16:02;16.40;99.90
60701;DHT22;46541;49.894;10.886;2022-09-09T04:18:30;16.40;99.90
60701;DHT22;46541;49.894;10.886;2022-09-09T04:20:57;16.40;99.90
60701;DHT22;46541;49.894;10.886;2022-09-09T04:23:26;16.40;99.90
60701;DHT22;46541;49.894;10.886;2022-09-09T04:25:56;16.40;99.90
60701;DHT22;46541;49.894;10.886;2022-09-09T04:28:25;16.40;99.90
60701;DHT22;46541;49.894;10.886;2022-09-09T04:30:53;16.40;99.90
60701;DHT22;46541;49.894;10.886;2022-09-09T04:33:20;16.40;99.90
60701;DHT22;46541;49.894;10.886;2022-09-09T04:35:49;16.40;99.90
60701;DHT22;46541;49.894;10.886;2022-09-09T04:38:17;16.40;99.90
60701;DHT22;46541;49.894;10.886;2022-09-09T04:40:47;16.40;99.90
60701;DHT22;46541;49.894;10.886;2022-09-09T04:43:14;16.50;99.90
60701;DHT22;46541;49.894;10.886;2022-09-09T04:45:42;16.50;99.90
60701;DHT22;46541;49.894;10.886;2022-09-09T04:48:09;16.50;99.90
60701;DHT22;46541;49.894;10.886;2022-09-09T04:50:36;16.50;99.90
60701;DHT22;46541;49.894;10.886;2022-09-09T04:53:04;16.50;99.90
60701;DHT22;46541;49.894;10.886;2022-09-09T04:55:32;16.50;99.90
60701;DHT22;46541;49.894;10.886;2022-09-09T04:58:07;16.50;99.90
60701;DHT22;46541;49.894;10.886;2022-09-09T05:00:35;16.50;99.90
60701;DHT22;46541;49.894;10.886;2022-09-09T05:03:03;16.50;99.90
60701;DHT22;46541;49.894;10.886;2022-09-09T05:05:32;16.50;99.90
60701;DHT22;46541;49.894;10.886;2022-09-09T05:08:03;16.50;99.90
60701;DHT22;46541;49.894;10.886;2022-09-09T05:10:32;16.60;99.90
60701;DHT22;46541;49.894;10.886;2022-09-09T05:12:59;16.60;99.90
60701;DHT22;46541;49.894;10.886;2022-09-09T05:15:26;16.60;99.90
60701;DHT22;46541;49.894;10.886;2022-09-09T05:17:57;16.60;99.90
60701;DHT22;46541;49.894;10.886;2022-09-09T05:20:24;16.60;99.90
60701;DHT22;46541;49.894;10.886;2022-09-09T05:22:53;16.60;99.90
60701;DHT22;46541;49.894;10.886;2022-09-09T05:25:20;16.70;99.90
60701;DHT22;46541;49.894;10.886;2022-09-09T05:27:48;16.70;99.90
60701;DHT22;46541;49.894;10.886;2022-09-09T05:30:16;16.60;99.90
60701;DHT22;46541;49.894;10.886;2022-09-09T05:32:45;16.60;99.90
60701;DHT22;46541;49.894;10.886;2022-09-09T05:35:11;16.60;99.90
60701;DHT22;46541;49.894;10.886;2022-09-09T05:37:39;16.70;99.90
60701;DHT22;46541;49.894;10.886;2022-09-09T05:40:06;16.70;99.90
60701;DHT22;46541;49.894;10.886;2022-09-09T05:42:33;16.80;99.90
60701;DHT22;46541;49.894;10.886;2022-09-09T05:45:00;16.80;99.90
60701;DHT22;46541;49.894;10.886;2022-09-09T05:47:27;16.90;99.90
60701;DHT22;46541;49.894;10.886;2022-09-09T05:49:55;16.90;99.90
60701;DHT22;46541;49.894;10.886;2022-09-09T05:52:22;16.90;99.90
60701;DHT22;46541;49.894;10.886;2022-09-09T05:54:50;17.00;99.90
60701;DHT22;46541;49.894;10.886;2022-09-09T05:57:16;16.90;99.90
60701;DHT22;46541;49.894;10.886;2022-09-09T05:59:43;17.00;99.90
60701;DHT22;46541;49.894;10.886;2022-09-09T06:02:10;17.00;99.90
60701;DHT22;46541;49.894;10.886;2022-09-09T06:04:37;17.00;99.90
60701;DHT22;46541;49.894;10.886;2022-09-09T06:07:05;17.00;99.90
60701;DHT22;46541;49.894;10.886;2022-09-09T06:09:32;16.90;99.90
60701;DHT22;46541;49.894;10.886;2022-09-09T06:11:58;17.00;99.90
60701;DHT22;46541;49.894;10.886;2022-09-09T06:14:25;17.00;99.90
60701;DHT22;46541;49.894;10.886;2022-09-09T06:16:53;16.90;99.90
60701;DHT22;46541;49.894;10.886;2022-09-09T06:19:20;16.90;99.90
60701;DHT22;46541;49.894;10.886;2022-09-09T06:21:47;16.90;99.90
60701;DHT22;46541;49.894;10.886;2022-09-09T06:24:14;16.80;99.90
60701;DHT22;46541;49.894;10.886;2022-09-09T06:26:43;16.80;99.90
60701;DHT22;46541;49.894;10.886;2022-09-09T06:29:10;16.90;99.90
60701;DHT22;46541;49.894;10.886;2022-09-09T06:31:37;16.90;99.90
60701;DHT22;46541;49.894;10.886;2022-09-09T06:34:06;17.00;99.90
60701;DHT22;46541;49.894;10.886;2022-09-09T06:36:36;17.10;99.90
60701;DHT22;46541;49.894;10.886;2022-09-09T06:39:04;17.30;99.90
60701;DHT22;46541;49.894;10.886;2022-09-09T06:41:36;17.30;99.90
60701;DHT22;46541;49.894;10.886;2022-09-09T06:44:04;17.40;99.90
60701;DHT22;46541;49.894;10.886;2022-09-09T06:46:31;17.50;99.90
60701;DHT22;46541;49.894;10.886;2022-09-09T06:49:00;17.60;99.90
60701;DHT22;46541;49.894;10.886;2022-09-09T06:51:29;17.60;99.90
60701;DHT22;46541;49.894;10.886;2022-09-09T06:53:58;17.70;99.90
60701;DHT22;46541;49.894;10.886;2022-09-09T06:58:59;17.80;99.90
60701;DHT22;46541;49.894;10.886;2022-09-09T07:01:30;18.00;99.90
60701;DHT22;46541;49.894;10.886;2022-09-09T07:03:59;18.10;99.90
60701;DHT22;46541;49.894;10.886;2022-09-09T07:06:33;18.10;99.90
60701;DHT22;46541;49.894;10.886;2022-09-09T07:09:03;18.10;99.90
60701;DHT22;46541;49.894;10.886;2022-09-09T07:11:33;18.20;99.90
60701;DHT22;46541;49.894;10.886;2022-09-09T07:14:01;18.30;99.90
60701;DHT22;46541;49.894;10.886;2022-09-09T07:16:28;18.30;99.90
60701;DHT22;46541;49.894;10.886;2022-09-09T07:18:56;18.50;99.90
60701;DHT22;46541;49.894;10.886;2022-09-09T07:21:29;18.60;99.90
60701;DHT22;46541;49.894;10.886;2022-09-09T07:23:56;18.70;99.90
60701;DHT22;46541;49.894;10.886;2022-09-09T07:26:29;18.80;99.90
60701;DHT22;46541;49.894;10.886;2022-09-09T07:28:56;18.90;99.90
60701;DHT22;46541;49.894;10.886;2022-09-09T07:31:31;19.10;99.90
60701;DHT22;46541;49.894;10.886;2022-09-09T07:33:59;19.20;99.90
60701;DHT22;46541;49.894;10.886;2022-09-09T07:36:37;19.20;99.90
60701;DHT22;46541;49.894;10.886;2022-09-09T07:39:08;19.20;99.90
60701;DHT22;46541;49.894;10.886;2022-09-09T07:41:46;19.20;99.90
60701;DHT22;46541;49.894;10.886;2022-09-09T07:44:15;19.30;99.90
60701;DHT22;46541;49.894;10.886;2022-09-09T07:46:43;19.30;99.90
60701;DHT22;46541;49.894;10.886;2022-09-09T07:49:12;19.30;99.90
60701;DHT22;46541;49.894;10.886;2022-09-09T07:51:41;19.30;99.90
60701;DHT22;46541;49.894;10.886;2022-09-09T07:54:11;19.40;99.90
60701;DHT22;46541;49.894;10.886;2022-09-09T07:56:43;19.60;99.90
60701;DHT22;46541;49.894;10.886;2022-09-09T07:59:10;19.70;99.90
60701;DHT22;46541;49.894;10.886;2022-09-09T08:01:40;19.80;99.90
60701;DHT22;46541;49.894;10.886;2022-09-09T08:04:18;19.80;99.90
60701;DHT22;46541;49.894;10.886;2022-09-09T08:06:53;19.90;99.90
60701;DHT22;46541;49.894;10.886;2022-09-09T08:09:21;19.90;99.90
60701;DHT22;46541;49.894;10.886;2022-09-09T08:11:51;19.90;99.90
60701;DHT22;46541;49.894;10.886;2022-09-09T08:14:18;19.90;99.90
60701;DHT22;46541;49.894;10.886;2022-09-09T08:16:47;19.90;99.90
60701;DHT22;46541;49.894;10.886;2022-09-09T08:19:14;20.00;99.90
60701;DHT22;46541;49.894;10.886;2022-09-09T08:21:45;20.10;99.90
60701;DHT22;46541;49.894;10.886;2022-09-09T08:24:12;20.10;99.90
60701;DHT22;46541;49.894;10.886;2022-09-09T08:26:43;20.30;99.90
60701;DHT22;46541;49.894;10.886;2022-09-09T08:29:11;20.30;99.90
60701;DHT22;46541;49.894;10.886;2022-09-09T08:31:47;20.40;99.90
60701;DHT22;46541;49.894;10.886;2022-09-09T08:34:14;20.50;99.90
60701;DHT22;46541;49.894;10.886;2022-09-09T08:36:43;20.60;99.90
60701;DHT22;46541;49.894;10.886;2022-09-09T08:39:13;20.50;99.90
60701;DHT22;46541;49.894;10.886;2022-09-09T08:56:08;21.00;99.90
60701;DHT22;46541;49.894;10.886;2022-09-09T08:58:32;21.10;99.90
60701;DHT22;46541;49.894;10.886;2022-09-09T09:03:51;21.30;99.90
60701;DHT22;46541;49.894;10.886;2022-09-09T09:11:40;21.60;99.90
60701;DHT22;46541;49.894;10.886;2022-09-09T09:14:15;21.80;99.70
60701;DHT22;46541;49.894;10.886;2022-09-09T09:19:20;21.60;99.90
60701;DHT22;46541;49.894;10.886;2022-09-09T09:24:55;21.70;99.60
60701;DHT22;46541;49.894;10.886;2022-09-09T09:27:43;21.80;99.50
60701;DHT22;46541;49.894;10.886;2022-09-09T09:33:05;22.00;99.40
60701;DHT22;46541;49.894;10.886;2022-09-09T09:35:35;22.10;99.20
60701;DHT22;46541;49.894;10.886;2022-09-09T09:38:20;21.90;99.30
60701;DHT22;46541;49.894;10.886;2022-09-09T09:41:08;21.80;99.30
60701;DHT22;46541;49.894;10.886;2022-09-09T09:43:37;21.70;99.70
60701;DHT22;46541;49.894;10.886;2022-09-09T09:46:22;21.70;99.70
60701;DHT22;46541;49.894;10.886;2022-09-09T09:48:57;21.90;99.50
60701;DHT22;46541;49.894;10.886;2022-09-09T09:51:25;21.90;99.30
60701;DHT22;46541;49.894;10.886;2022-09-09T09:53:53;22.40;99.10
60701;DHT22;46541;49.894;10.886;2022-09-09T09:56:27;22.90;97.80
60701;DHT22;46541;49.894;10.886;2022-09-09T09:58:56;23.40;97.00
60701;DHT22;46541;49.894;10.886;2022-09-09T10:03:57;23.40;96.90
60701;DHT22;46541;49.894;10.886;2022-09-09T10:06:32;23.30;96.80
60701;DHT22;46541;49.894;10.886;2022-09-09T10:09:01;23.10;97.00
60701;DHT22;46541;49.894;10.886;2022-09-09T10:22:39;22.10;98.30
60701;DHT22;46541;49.894;10.886;2022-09-09T10:36:13;22.00;97.30
60701;DHT22;46541;49.894;10.886;2022-09-09T10:39:28;22.20;97.10
60701;DHT22;46541;49.894;10.886;2022-09-09T10:42:05;22.30;96.70
60701;DHT22;46541;49.894;10.886;2022-09-09T10:47:53;23.30;96.20
60701;DHT22;46541;49.894;10.886;2022-09-09T10:50:43;23.80;93.20
60701;DHT22;46541;49.894;10.886;2022-09-09T10:56:15;23.90;92.10
60701;DHT22;46541;49.894;10.886;2022-09-09T10:58:55;23.70;92.00
60701;DHT22;46541;49.894;10.886;2022-09-09T11:01:40;23.50;92.80
60701;DHT22;46541;49.894;10.886;2022-09-09T11:04:23;24.00;92.30
60701;DHT22;46541;49.894;10.886;2022-09-09T11:06:55;24.30;91.20
60701;DHT22;46541;49.894;10.886;2022-09-09T11:09:28;24.70;91.00
60701;DHT22;46541;49.894;10.886;2022-09-09T11:11:58;24.60;91.30
60701;DHT22;46541;49.894;10.886;2022-09-09T11:14:34;24.10;91.80
60701;DHT22;46541;49.894;10.886;2022-09-09T11:17:10;23.80;92.50
60701;DHT22;46541;49.894;10.886;2022-09-09T11:19:40;24.50;92.10
60701;DHT22;46541;49.894;10.886;2022-09-09T11:22:37;26.40;89.40
60701;DHT22;46541;49.894;10.886;2022-09-09T11:25:26;27.00;86.20
60701;DHT22;46541;49.894;10.886;2022-09-09T11:31:21;28.20;79.40
60701;DHT22;46541;49.894;10.886;2022-09-09T11:40:24;26.90;81.20
60701;DHT22;46541;49.894;10.886;2022-09-09T11:43:12;26.60;80.30
60701;DHT22;46541;49.894;10.886;2022-09-09T11:45:43;26.60;79.30
60701;DHT22;46541;49.894;10.886;2022-09-09T11:48:32;26.80;80.20
60701;DHT22;46541;49.894;10.886;2022-09-09T11:51:35;27.00;78.40
60701;DHT22;46541;49.894;10.886;2022-09-09T11:53:59;26.50;78.40
60701;DHT22;46541;49.894;10.886;2022-09-09T11:56:41;26.00;75.40
60701;DHT22;46541;49.894;10.886;2022-09-09T11:59:29;25.60;76.50
60701;DHT22;46541;49.894;10.886;2022-09-09T12:01:59;25.50;76.40
60701;DHT22;46541;49.894;10.886;2022-09-09T12:04:29;25.60;76.70
60701;DHT22;46541;49.894;10.886;2022-09-09T12:09:43;25.50;79.00
60701;DHT22;46541;49.894;10.886;2022-09-09T12:14:53;25.10;77.30
60701;DHT22;46541;49.894;10.886;2022-09-09T12:17:23;25.00;76.60
60701;DHT22;46541;49.894;10.886;2022-09-09T12:28:15;24.20;74.70
60701;DHT22;46541;49.894;10.886;2022-09-09T12:33:18;23.30;76.70
60701;DHT22;46541;49.894;10.886;2022-09-09T12:35:52;23.20;77.40
60701;DHT22;46541;49.894;10.886;2022-09-09T12:38:29;23.00;77.50
60701;DHT22;46541;49.894;10.886;2022-09-09T12:40:58;22.70;77.80
60701;DHT22;46541;49.894;10.886;2022-09-09T12:43:26;22.30;78.20
60701;DHT22;46541;49.894;10.886;2022-09-09T12:46:03;22.20;79.40
60701;DHT22;46541;49.894;10.886;2022-09-09T12:48:37;22.10;79.70
60701;DHT22;46541;49.894;10.886;2022-09-09T12:51:07;22.10;81.00
60701;DHT22;46541;49.894;10.886;2022-09-09T12:53:43;22.50;84.50
60701;DHT22;46541;49.894;10.886;2022-09-09T12:56:20;22.80;89.00
60701;DHT22;46541;49.894;10.886;2022-09-09T12:58:50;22.60;88.20
60701;DHT22;46541;49.894;10.886;2022-09-09T13:01:25;22.30;85.20
60701;DHT22;46541;49.894;10.886;2022-09-09T13:03:53;21.90;84.30
60701;DHT22;46541;49.894;10.886;2022-09-09T13:06:28;21.90;83.70
60701;DHT22;46541;49.894;10.886;2022-09-09T13:08:57;22.00;85.00
60701;DHT22;46541;49.894;10.886;2022-09-09T13:11:37;22.00;85.20
60701;DHT22;46541;49.894;10.886;2022-09-09T13:14:06;21.80;84.00
60701;DHT22;46541;49.894;10.886;2022-09-09T13:16:35;21.70;84.50
60701;DHT22;46541;49.894;10.886;2022-09-09T13:19:14;21.80;84.20
60701;DHT22;46541;49.894;10.886;2022-09-09T13:21:42;22.10;82.70
60701;DHT22;46541;49.894;10.886;2022-09-09T13:29:54;22.70;80.80
60701;DHT22;46541;49.894;10.886;2022-09-09T13:32:24;22.50;80.00
60701;DHT22;46541;49.894;10.886;2022-09-09T13:35:01;22.40;80.20
60701;DHT22;46541;49.894;10.886;2022-09-09T13:37:34;22.30;80.00
60701;DHT22;46541;49.894;10.886;2022-09-09T13:40:02;22.30;79.80
60701;DHT22;46541;49.894;10.886;2022-09-09T13:42:32;22.40;80.30
60701;DHT22;46541;49.894;10.886;2022-09-09T13:45:02;22.50;79.00
60701;DHT22;46541;49.894;10.886;2022-09-09T13:47:35;22.70;78.10
60701;DHT22;46541;49.894;10.886;2022-09-09T13:52:57;22.70;79.60
60701;DHT22;46541;49.894;10.886;2022-09-09T13:55:28;22.70;79.60
60701;DHT22;46541;49.894;10.886;2022-09-09T13:58:01;22.70;79.10
60701;DHT22;46541;49.894;10.886;2022-09-09T14:00:34;22.70;79.00
60701;DHT22;46541;49.894;10.886;2022-09-09T14:03:01;22.70;78.40
60701;DHT22;46541;49.894;10.886;2022-09-09T14:05:31;22.90;79.70
60701;DHT22;46541;49.894;10.886;2022-09-09T14:07:59;23.10;78.40
60701;DHT22;46541;49.894;10.886;2022-09-09T14:10:27;23.10;77.80
60701;DHT22;46541;49.894;10.886;2022-09-09T14:12:54;23.00;78.70
60701;DHT22;46541;49.894;10.886;2022-09-09T14:15:21;23.00;78.30
60701;DHT22;46541;49.894;10.886;2022-09-09T14:17:48;23.00;75.50
60701;DHT22;46541;49.894;10.886;2022-09-09T14:20:15;22.90;75.00
60701;DHT22;46541;49.894;10.886;2022-09-09T14:22:44;22.90;75.90
60701;DHT22;46541;49.894;10.886;2022-09-09T14:25:11;22.90;76.50
60701;DHT22;46541;49.894;10.886;2022-09-09T14:27:40;22.80;77.20
60701;DHT22;46541;49.894;10.886;2022-09-09T14:30:08;22.90;77.90
60701;DHT22;46541;49.894;10.886;2022-09-09T14:32:35;22.90;79.00
60701;DHT22;46541;49.894;10.886;2022-09-09T14:35:02;23.00;78.40
60701;DHT22;46541;49.894;10.886;2022-09-09T14:37:28;23.00;78.40
60701;DHT22;46541;49.894;10.886;2022-09-09T14:39:58;23.00;80.00
60701;DHT22;46541;49.894;10.886;2022-09-09T14:42:24;23.00;79.50
60701;DHT22;46541;49.894;10.886;2022-09-09T14:44:52;23.10;82.20
60701;DHT22;46541;49.894;10.886;2022-09-09T14:47:19;23.20;82.60
60701;DHT22;46541;49.894;10.886;2022-09-09T14:49:45;23.10;81.30
60701;DHT22;46541;49.894;10.886;2022-09-09T14:52:13;23.10;81.00
60701;DHT22;46541;49.894;10.886;2022-09-09T14:54:39;23.00;80.20
60701;DHT22;46541;49.894;10.886;2022-09-09T14:57:06;23.00;80.70
60701;DHT22;46541;49.894;10.886;2022-09-09T14:59:33;22.90;82.60
60701;DHT22;46541;49.894;10.886;2022-09-09T15:02:00;22.80;81.20
60701;DHT22;46541;49.894;10.886;2022-09-09T15:04:31;22.70;78.80
60701;DHT22;46541;49.894;10.886;2022-09-09T15:06:57;22.70;79.20
60701;DHT22;46541;49.894;10.886;2022-09-09T15:09:25;22.70;78.40
60701;DHT22;46541;49.894;10.886;2022-09-09T15:11:52;22.60;79.70
60701;DHT22;46541;49.894;10.886;2022-09-09T15:14:19;22.70;79.60
60701;DHT22;46541;49.894;10.886;2022-09-09T15:16:49;22.70;80.30
60701;DHT22;46541;49.894;10.886;2022-09-09T15:19:16;22.80;78.90
60701;DHT22;46541;49.894;10.886;2022-09-09T15:21:43;22.90;79.90
60701;DHT22;46541;49.894;10.886;2022-09-09T15:24:10;22.90;80.40
60701;DHT22;46541;49.894;10.886;2022-09-09T15:26:39;22.90;81.20
60701;DHT22;46541;49.894;10.886;2022-09-09T15:29:06;22.90;81.20
60701;DHT22;46541;49.894;10.886;2022-09-09T15:31:35;22.90;81.50
60701;DHT22;46541;49.894;10.886;2022-09-09T15:34:04;23.00;81.70
60701;DHT22;46541;49.894;10.886;2022-09-09T15:36:37;23.00;81.80
60701;DHT22;46541;49.894;10.886;2022-09-09T15:39:06;23.10;82.30
60701;DHT22;46541;49.894;10.886;2022-09-09T15:41:34;23.00;81.30
60701;DHT22;46541;49.894;10.886;2022-09-09T15:44:01;23.10;81.20
60701;DHT22;46541;49.894;10.886;2022-09-09T15:46:40;23.00;79.20
60701;DHT22;46541;49.894;10.886;2022-09-09T15:51:39;22.90;79.40
60701;DHT22;46541;49.894;10.886;2022-09-09T15:54:15;22.90;79.10
60701;DHT22;46541;49.894;10.886;2022-09-09T15:56:44;22.90;79.00
60701;DHT22;46541;49.894;10.886;2022-09-09T15:59:12;22.90;78.30
60701;DHT22;46541;49.894;10.886;2022-09-09T16:01:39;22.60;78.00
60701;DHT22;46541;49.894;10.886;2022-09-09T16:04:10;22.50;78.70
60701;DHT22;46541;49.894;10.886;2022-09-09T16:06:36;22.40;78.70
60701;DHT22;46541;49.894;10.886;2022-09-09T16:09:05;22.40;79.50
60701;DHT22;46541;49.894;10.886;2022-09-09T16:11:34;22.30;78.90
60701;DHT22;46541;49.894;10.886;2022-09-09T16:14:03;22.30;79.80
60701;DHT22;46541;49.894;10.886;2022-09-09T16:16:30;22.20;79.40
60701;DHT22;46541;49.894;10.886;2022-09-09T16:19:01;22.10;79.70
60701;DHT22;46541;49.894;10.886;2022-09-09T16:21:34;22.00;80.00
60701;DHT22;46541;49.894;10.886;2022-09-09T16:24:03;22.00;81.10
60701;DHT22;46541;49.894;10.886;2022-09-09T16:26:32;21.90;82.00
60701;DHT22;46541;49.894;10.886;2022-09-09T16:28:59;21.80;82.20
60701;DHT22;46541;49.894;10.886;2022-09-09T16:31:29;21.70;82.40
60701;DHT22;46541;49.894;10.886;2022-09-09T16:33:56;21.60;82.80
60701;DHT22;46541;49.894;10.886;2022-09-09T16:36:26;21.60;83.40
60701;DHT22;46541;49.894;10.886;2022-09-09T16:38:55;21.50;84.00
60701;DHT22;46541;49.894;10.886;2022-09-09T16:41:25;21.50;84.50
60701;DHT22;46541;49.894;10.886;2022-09-09T16:43:53;21.50;84.70
60701;DHT22;46541;49.894;10.886;2022-09-09T16:46:21;21.50;83.50
60701;DHT22;46541;49.894;10.886;2022-09-09T16:48:48;21.40;84.20
60701;DHT22;46541;49.894;10.886;2022-09-09T16:51:17;21.40;84.00
60701;DHT22;46541;49.894;10.886;2022-09-09T16:53:44;21.30;85.90
60701;DHT22;46541;49.894;10.886;2022-09-09T16:56:16;21.20;87.90
60701;DHT22;46541;49.894;10.886;2022-09-09T16:58:44;21.20;89.20
60701;DHT22;46541;49.894;10.886;2022-09-09T17:01:15;21.20;89.70
60701;DHT22;46541;49.894;10.886;2022-09-09T17:03:42;21.00;90.00
60701;DHT22;46541;49.894;10.886;2022-09-09T17:06:11;21.00;90.40
60701;DHT22;46541;49.894;10.886;2022-09-09T17:08:38;20.90;90.60
60701;DHT22;46541;49.894;10.886;2022-09-09T17:11:14;20.90;90.50
60701;DHT22;46541;49.894;10.886;2022-09-09T17:13:42;20.80;90.90
60701;DHT22;46541;49.894;10.886;2022-09-09T17:16:10;20.80;90.80
60701;DHT22;46541;49.894;10.886;2022-09-09T17:18:37;20.70;90.90
60701;DHT22;46541;49.894;10.886;2022-09-09T17:21:09;20.70;91.00
60701;DHT22;46541;49.894;10.886;2022-09-09T17:23:40;20.70;91.30
60701;DHT22;46541;49.894;10.886;2022-09-09T17:26:09;20.70;91.20
60701;DHT22;46541;49.894;10.886;2022-09-09T17:28:41;20.60;91.20
60701;DHT22;46541;49.894;10.886;2022-09-09T17:31:09;20.60;91.20
60701;DHT22;46541;49.894;10.886;2022-09-09T17:33:38;20.60;91.10
60701;DHT22;46541;49.894;10.886;2022-09-09T17:36:16;20.50;91.00
60701;DHT22;46541;49.894;10.886;2022-09-09T17:38:44;20.50;90.80
60701;DHT22;46541;49.894;10.886;2022-09-09T17:41:14;20.40;90.40
60701;DHT22;46541;49.894;10.886;2022-09-09T17:43:42;20.40;90.20
60701;DHT22;46541;49.894;10.886;2022-09-09T17:46:11;20.30;89.80
60701;DHT22;46541;49.894;10.886;2022-09-09T17:48:39;20.30;89.70
60701;DHT22;46541;49.894;10.886;2022-09-09T17:51:08;20.30;89.50
60701;DHT22;46541;49.894;10.886;2022-09-09T17:53:37;20.30;89.00
60701;DHT22;46541;49.894;10.886;2022-09-09T17:56:05;20.20;89.00
60701;DHT22;46541;49.894;10.886;2022-09-09T17:58:32;20.30;89.00
60701;DHT22;46541;49.894;10.886;2022-09-09T18:01:08;20.20;88.70
60701;DHT22;46541;49.894;10.886;2022-09-09T18:03:39;20.10;88.20
60701;DHT22;46541;49.894;10.886;2022-09-09T18:06:08;20.10;88.50
60701;DHT22;46541;49.894;10.886;2022-09-09T18:08:35;20.10;89.00
60701;DHT22;46541;49.894;10.886;2022-09-09T18:11:03;20.00;89.00
60701;DHT22;46541;49.894;10.886;2022-09-09T18:13:30;19.90;89.70